Flight Track Log - Related Links

Times and Time Zones

All times are in EDT time to prevent confusion due to time zone crossing. See the N629C flight status page for this flight to view local times or setup timezone preferences in your user account.

Time Position Orientation Groundspeed Altitude Reporting Facility
EDT Latitude Longitude Course Direction KTS MPH feet Rate Location/Type
Sun 07:42:01 PM 29.9497 -98.2458 24° Northeast 156 180 7,300  Level Houston Center
Sun 07:43:06 PM 29.9933 -98.2239 24° Northeast 162 186 7,600 378 Climbing Houston Center
Sun 07:44:08 PM 30.0367 -98.2050 21° North 152 175 8,100 484 Climbing Houston Center
Sun 07:45:10 PM 30.0750 -98.1881 21° North 147 169 8,600 484 Climbing Houston Center
Sun 07:46:12 PM 30.1167 -98.1686 22° Northeast 151 174 9,100 435 Climbing Houston Center
Sun 07:47:14 PM 30.1567 -98.1514 20° North 153 176 9,500 194 Climbing Houston Center
Sun 07:48:16 PM 30.2008 -98.1314 21° North 173 199 9,500  Level Houston Center
Sun 07:49:18 PM 30.2522 -98.1069 22° Northeast 185 213 9,500  Level Houston Center
Sun 07:50:20 PM 30.3008 -98.0856 21° North 188 216 9,500  Level Houston Center
Sun 07:51:22 PM 30.3453 -98.0647 22° Northeast 188 216 9,500  Level Houston Center
Sun 07:52:24 PM 30.3950 -98.0425 21° North 190 219 9,500  Level Houston Center
Sun 07:53:26 PM 30.4539 -98.0167 21° North 191 220 9,500  Level Houston Center
Sun 07:54:28 PM 30.5033 -97.9939 22° Northeast 189 217 9,500  Level Houston Center
Sun 07:55:30 PM 30.5536 -97.9711 21° North 191 220 9,500  Level Houston Center
Sun 07:56:31 PM 30.6033 -97.9472 22° Northeast 191 220 9,500  Level Houston Center
Sun 07:57:33 PM 30.6539 -97.9247 21° North 192 221 9,500  Level Houston Center
Sun 07:58:35 PM 30.7042 -97.9014 22° Northeast 192 221 9,500  Level Houston Center
Sun 07:59:37 PM 30.7539 -97.8792 21° North 191 220 9,500  Level Houston Center
Sun 08:00:39 PM 30.8025 -97.8572 21° North 187 215 9,500  Level Houston Center
Sun 08:01:41 PM 30.8608 -97.8306 21° North 189 217 9,500  Level Houston Center
Sun 08:02:34 PM 30.8953 -97.7983 39° Northeast 202 232 9,500  Level Fort Worth Center
Sun 08:03:34 PM 30.9392 -97.7547 40° Northeast 200 230 9,500  Level Fort Worth Center
Sun 08:04:29 PM 30.9769 -97.7186 39° Northeast 201 231 9,500  Level Fort Worth Center
Sun 08:05:24 PM 31.0147 -97.6825 39° Northeast 198 228 9,500  Level Fort Worth Center
Sun 08:06:24 PM 31.0606 -97.6389 39° Northeast 199 229 9,500  Level Fort Worth Center
Sun 08:07:25 PM 31.1044 -97.5953 40° Northeast 200 230 9,500  Level Fort Worth Center
Sun 08:08:25 PM 31.1464 -97.5542 40° Northeast 199 229 9,500  Level Fort Worth Center
Sun 08:09:26 PM 31.1964 -97.5322 21° North 186 214 9,500 -188 Level Fort Worth Center
Sun 08:11:00 PM 31.2479 -97.5209 19° North  Level FlightAware Approximate
Sun 08:18:00 PM 31.5695 -97.3938 18° North  Level FlightAware Approximate
Sun 08:19:00 PM 31.6155 -97.3761 18° North  Level FlightAware Approximate
Sun 08:20:00 PM 31.6616 -97.3583 18° North  Level FlightAware Approximate
Sun 08:21:00 PM 31.7076 -97.3405 18° North  Level FlightAware Approximate
Sun 08:22:00 PM 31.7537 -97.3227 18° North  Level FlightAware Approximate
Sun 08:23:00 PM 31.7997 -97.3049 18° North  Level FlightAware Approximate
Sun 08:24:00 PM 31.8458 -97.2871 18° North  Level FlightAware Approximate
Sun 08:25:00 PM 31.8918 -97.2692 18° North  Level FlightAware Approximate
Sun 08:26:00 PM 31.9379 -97.2514 18° North  Level FlightAware Approximate
Sun 08:27:00 PM 31.9839 -97.2335 18° North  Level FlightAware Approximate
Sun 08:28:00 PM 32.0299 -97.2156 18° North  Level FlightAware Approximate
Sun 08:29:00 PM 32.0535 -97.1573 64° Northeast  Level FlightAware Approximate
Sun 08:30:00 PM 32.1059 -97.1391 12° North  Level Estimated
Sun 08:30:12 PM 32.2167 -97.1333 16° North 179 206 5,400  Level Dallas / Fort Worth TRACON
Sun 08:31:00 PM 32.1548 -97.1101 27° Northeast  Level FlightAware Approximate
Sun 08:31:12 PM 32.2667 -97.1167 16° North 177 204 5,000  Level Dallas / Fort Worth TRACON
Sun 08:32:00 PM 32.2036 -97.0810 27° Northeast  Level FlightAware Approximate
Sun 08:32:18 PM 32.3167 -97.1000 16° North 178 205 5,000  Level Dallas / Fort Worth TRACON
Sun 08:33:00 PM 32.2524 -97.0518 27° Northeast  Level FlightAware Approximate
Sun 08:33:12 PM 32.3500 -97.0833 23° Northeast 174 200 5,000  Level Dallas / Fort Worth TRACON
Sun 08:34:00 PM 32.3054 -97.0360 15° North  Level Estimated
Sun 08:34:18 PM 32.4000 -97.0667 16° North 172 198 5,000  Level Dallas / Fort Worth TRACON
Sun 08:35:00 PM 32.3579 -97.0180 16° North  Level FlightAware Approximate
Sun 08:35:24 PM 32.4500 -97.0333 29° Northeast 171 197 5,000  Level Dallas / Fort Worth TRACON
Sun 08:36:24 PM 32.5000 -97.0167 16° North 175 201 5,000 -158 Level Dallas / Fort Worth TRACON
Sun 08:37:18 PM 32.5500 -97.0000 16° North 180 207 4,700 -316 Descending Dallas / Fort Worth TRACON
Sun 08:38:18 PM 32.5833 -96.9833 23° Northeast 176 203 4,400 -368 Descending Dallas / Fort Worth TRACON
Sun 08:39:12 PM 32.6333 -96.9667 16° North 178 205 4,000 -250 Descending Dallas / Fort Worth TRACON
Sun 08:40:18 PM 32.6833 -96.9500 16° North 167 192 3,900 -50 Descending Dallas / Fort Worth TRACON
Sun 08:41:12 PM 32.7167 -96.9167 40° Northeast 165 190 3,900 -53 Level Dallas / Fort Worth TRACON
Sun 08:42:12 PM 32.7500 -96.9000 23° Northeast 164 189 3,800 -300 Descending Dallas / Fort Worth TRACON
Sun 08:43:12 PM 32.8000 -96.8833 16° North 180 207 3,300 -350 Descending Dallas / Fort Worth TRACON
Sun 08:44:12 PM 32.8500 -96.8833 360° North 172 198 3,100 -200 Descending Dallas / Fort Worth TRACON
Sun 08:45:12 PM 32.9000 -96.8667 16° North 157 181 2,900 -550 Descending Dallas / Fort Worth TRACON
Sun 08:46:12 PM 32.9333 -96.8500 23° Northeast 161 185 2,000 -750 Descending Dallas / Fort Worth TRACON
Sun 08:47:12 PM 32.9667 -96.8667 337° Northwest 132 152 1,400 -526 Descending Dallas / Fort Worth TRACON
Sun 08:48:06 PM 32.9833 -96.8500 40° Northeast 95 109 1,000 -444 Descending Dallas / Fort Worth TRACON

Login

Don't have an account? Register now (free) for customized features, flight alerts, and more!